Time;durP1;ratioP1;P1;durP2;ratioP2;P2;SDS_P1;SDS_P2;PMS_P1;PMS_P2;Temp;Humidity;BMP_temperature;BMP_pressure;BME280_temperature;BME280_humidity;BME280_pressure;Samples;Min_cycle;Max_cycle;Signal;HPM_P1;HPM_P2
2021/01/30 07:14:12;;;;;;;;;;;;;;;9.98;67.44;98059.25;6289848;22;19925;-81
2021/01/30 07:16:56;;;;;;;;;;;;;;;10.01;67.50;98051.13;6259277;22;20300;-83
2021/01/30 07:19:21;;;;;;;;;;;;;;;10.06;67.64;98050.81;6285250;22;19951;-80
2021/01/30 07:21:52;;;;;;;;;;;;;;;10.17;67.72;98040.34;6283257;22;19915;-82
2021/01/30 07:24:27;;;;;;;;;;;;;;;10.27;67.90;98049.31;6282838;22;19950;-83
2021/01/30 07:27:02;;;;;;;;;;;;;;;10.41;67.83;98051.03;6280487;22;19950;-82
2021/01/30 07:29:35;;;;;;;;;;;;;;;10.51;67.53;98051.25;6280816;22;19911;-81
2021/01/30 07:32:07;;;;;;;;;;;;;;;10.59;67.28;98040.97;6280195;22;19915;-82
2021/01/30 07:34:51;;;;;;;;;;;;;;;10.63;67.36;98047.75;6250859;22;19986;-80
2021/01/30 07:37:31;;;;;;;;;;;;;;;10.76;66.92;98045.06;6276298;22;19952;-79
2021/01/30 07:39:56;;;;;;;;;;;;;;;10.78;66.73;98042.31;6277712;22;20268;-79
2021/01/30 07:42:44;;;;;;;;;;;;;;;10.80;66.85;98040.38;6250197;22;19994;-80
2021/01/30 07:45:12;;;;;;;;;;;;;;;10.86;66.57;98040.78;6276860;22;19994;-78
2021/01/30 07:47:59;;;;;;;;;;;;;;;10.86;66.50;98027.53;6250212;22;19934;-80
2021/01/30 07:50:29;;;;;;;;;;;;;;;10.86;66.50;98029.34;6251902;22;19939;-80
2021/01/30 07:53:13;;;;;;;;;;;;;;;10.94;66.27;98026.16;6278290;22;20052;-79
2021/01/30 07:55:56;;;;;;;;;;;;;;;11.01;66.17;98022.09;6277312;22;19923;-79
2021/01/30 07:58:40;;;;;;;;;;;;;;;10.99;66.15;98021.38;6268051;22;19915;-83
2021/01/30 08:01:06;;;;;;;;;;;;;;;10.96;66.43;98017.16;6309294;22;19915;-85
2021/01/30 08:03:32;;;;;;;;;;;;;;;10.99;66.39;98008.97;6281341;22;19980;-80
2021/01/30 08:06:03;;;;;;;;;;;;;;;11.05;66.34;98011.16;6281170;22;19915;-78
2021/01/30 08:08:29;;;;;;;;;;;;;;;11.11;66.09;98012.53;6308901;22;20226;-82
2021/01/30 08:10:54;;;;;;;;;;;;;;;11.05;66.27;98008.50;6308949;22;19982;-81
2021/01/30 08:13:42;;;;;;;;;;;;;;;11.07;66.26;98011.91;6281849;22;19926;-82
2021/01/30 08:16:26;;;;;;;;;;;;;;;11.14;66.16;98008.81;6309174;22;19923;-81
2021/01/30 08:18:58;;;;;;;;;;;;;;;11.24;65.78;98007.16;6309121;22;20287;-79
2021/01/30 08:21:45;;;;;;;;;;;;;;;11.22;65.70;98009.09;6282936;22;19919;-80
2021/01/30 08:24:27;;;;;;;;;;;;;;;11.18;66.01;98002.31;6280564;22;19998;-83
2021/01/30 08:26:59;;;;;;;;;;;;;;;11.14;65.82;97996.41;6308242;22;19984;-84
2021/01/30 08:29:27;;;;;;;;;;;;;;;11.15;66.32;97991.94;6283029;22;19922;-84
2021/01/30 08:31:58;;;;;;;;;;;;;;;11.19;66.11;97988.94;6307973;22;20322;-82
2021/01/30 08:34:28;;;;;;;;;;;;;;;11.18;66.02;97991.72;6283548;22;20010;-82
2021/01/30 08:36:55;;;;;;;;;;;;;;;11.22;66.17;97978.13;6283624;22;19915;-80
2021/01/30 08:39:23;;;;;;;;;;;;;;;11.18;66.00;97968.69;6284248;22;19986;-85
2021/01/30 08:41:51;;;;;;;;;;;;;;;11.24;66.14;97967.41;6285824;22;19930;-85
2021/01/30 08:44:49;;;;;;;;;;;;;;;11.29;66.16;97969.72;6284696;22;19942;-83
2021/01/30 08:47:22;;;;;;;;;;;;;;;11.30;65.69;97960.81;6250529;22;19915;-81
2021/01/30 08:49:54;;;;;;;;;;;;;;;11.23;66.16;97960.41;6282857;22;20227;-81
2021/01/30 08:52:22;;;;;;;;;;;;;;;11.21;66.10;97957.84;6283299;22;19919;-82
2021/01/30 08:54:48;;;;;;;;;;;;;;;11.22;66.16;97956.06;6285549;22;19960;-80
2021/01/30 08:57:31;;;;;;;;;;;;;;;11.22;66.10;97956.06;6309170;22;19915;-85
2021/01/30 09:00:07;;;;;;;;;;;;;;;11.25;66.13;97955.84;6282192;22;19915;-84
2021/01/30 09:02:33;;;;;;;;;;;;;;;11.25;66.08;97935.47;6283383;22;20457;-81
2021/01/30 09:05:07;;;;;;;;;;;;;;;11.25;66.10;97946.09;6283763;22;19945;-82
2021/01/30 09:07:38;;;;;;;;;;;;;;;11.24;66.19;97949.69;6283994;22;20223;-81
2021/01/30 09:10:22;;;;;;;;;;;;;;;11.28;66.09;97945.03;6284028;22;19929;-85
2021/01/30 09:12:58;;;;;;;;;;;;;;;11.32;65.91;97940.31;6284288;22;20227;-83
2021/01/30 09:15:53;;;;;;;;;;;;;;;11.37;65.82;97933.69;6310522;22;19942;-82
2021/01/30 09:18:18;;;;;;;;;;;;;;;11.41;65.55;97934.34;6302323;22;19915;-82
2021/01/30 09:21:04;;;;;;;;;;;;;;;11.34;65.93;97933.94;6311192;22;19943;-83
2021/01/30 09:23:41;;;;;;;;;;;;;;;11.32;65.50;97941.16;6333973;22;20326;-80
2021/01/30 09:26:12;;;;;;;;;;;;;;;11.34;66.01;97938.38;6283652;22;19941;-81
2021/01/30 09:28:37;;;;;;;;;;;;;;;11.34;65.79;97944.53;6283805;22;19964;-78
2021/01/30 09:31:04;;;;;;;;;;;;;;;11.34;65.88;97939.22;6310373;22;19915;-83
2021/01/30 09:33:31;;;;;;;;;;;;;;;11.36;65.88;97942.63;6283290;22;19941;-82
2021/01/30 09:36:09;;;;;;;;;;;;;;;11.35;65.79;97932.97;6309256;22;19941;-84
2021/01/30 09:38:39;;;;;;;;;;;;;;;11.34;65.78;97927.78;6309763;22;19926;-83
2021/01/30 09:41:23;;;;;;;;;;;;;;;11.35;65.88;97935.63;6283377;22;19915;-81
2021/01/30 09:43:49;;;;;;;;;;;;;;;11.39;65.71;97931.78;6282514;22;19926;-83
2021/01/30 09:46:22;;;;;;;;;;;;;;;11.48;65.27;97930.25;6282782;22;19919;-84
2021/01/30 09:48:49;;;;;;;;;;;;;;;11.44;65.56;97924.31;6310253;22;19915;-79
2021/01/30 09:51:18;;;;;;;;;;;;;;;11.47;65.80;97917.09;6283025;22;19926;-83
2021/01/30 09:53:59;;;;;;;;;;;;;;;11.52;65.67;97915.78;6311194;22;20011;-81
2021/01/30 09:56:25;;;;;;;;;;;;;;;11.52;65.21;97915.78;6309664;22;19915;-82
2021/01/30 09:58:54;;;;;;;;;;;;;;;11.47;65.58;97917.94;6282741;22;19926;-82
2021/01/30 10:01:23;;;;;;;;;;;;;;;11.41;65.70;97910.47;6282660;22;19944;-81
2021/01/30 10:03:48;;;;;;;;;;;;;;;11.31;65.88;97910.28;6282861;22;19919;-80
2021/01/30 10:06:16;;;;;;;;;;;;;;;11.29;66.13;97909.56;6282731;22;19926;-83
2021/01/30 10:08:42;;;;;;;;;;;;;;;11.23;65.88;97907.38;6310749;22;19925;-80
2021/01/30 10:11:18;;;;;;;;;;;;;;;11.22;66.31;97905.72;6284916;22;19943;-82
2021/01/30 10:14:04;;;;;;;;;;;;;;;11.37;66.08;97901.88;6260248;22;19998;-84
2021/01/30 10:16:29;;;;;;;;;;;;;;;11.42;65.75;97894.44;6336461;22;19919;-83
2021/01/30 10:18:59;;;;;;;;;;;;;;;11.49;65.94;97899.25;6312472;22;20116;-84
2021/01/30 10:21:53;;;;;;;;;;;;;;;11.51;65.93;97887.56;6310796;22;19990;-84
2021/01/30 10:24:19;;;;;;;;;;;;;;;11.52;65.97;97888.41;6301539;22;19922;-84
2021/01/30 10:26:45;;;;;;;;;;;;;;;11.51;65.94;97878.78;6283651;22;19922;-82
2021/01/30 10:29:11;;;;;;;;;;;;;;;11.50;65.94;97874.44;6310856;22;19915;-79
2021/01/30 10:31:41;;;;;;;;;;;;;;;11.52;65.83;97875.16;6283095;22;19996;-81
2021/01/30 10:34:24;;;;;;;;;;;;;;;11.53;66.10;97868.88;6307501;22;19914;-82
2021/01/30 10:36:57;;;;;;;;;;;;;;;11.52;66.08;97857.44;6280695;22;19941;-81
2021/01/30 10:39:24;;;;;;;;;;;;;;;11.58;65.96;97850.81;6309405;22;19931;-82
2021/01/30 10:41:50;;;;;;;;;;;;;;;11.58;65.90;97845.50;6310883;22;19957;-78
2021/01/30 10:44:27;;;;;;;;;;;;;;;11.53;65.80;97837.06;6309175;22;19923;-80
2021/01/30 10:46:57;;;;;;;;;;;;;;;11.50;66.15;97826.69;6309984;22;19914;-83
2021/01/30 10:49:25;;;;;;;;;;;;;;;11.55;65.96;97825.38;6309805;22;19930;-82
2021/01/30 10:52:03;;;;;;;;;;;;;;;11.59;65.66;97813.56;6282274;22;19925;-83
2021/01/30 10:54:29;;;;;;;;;;;;;;;11.63;65.53;97812.34;6283069;22;19926;-81
2021/01/30 18:09:46;;;;;;;;;;;;;;;9.51;66.22;97642.91;6275035;22;19930;-83
2021/01/30 18:12:11;;;;;;;;;;;;;;;9.50;65.97;97650.03;6301423;22;19929;-82
2021/01/30 18:14:37;;;;;;;;;;;;;;;9.53;66.37;97655.09;6305525;22;19915;-80
2021/01/30 18:17:09;;;;;;;;;;;;;;;9.63;67.09;97666.66;6305523;22;19945;-80
2021/01/30 18:19:36;;;;;;;;;;;;;;;9.81;67.37;97666.28;6304978;22;20354;-83
2021/01/30 18:22:01;;;;;;;;;;;;;;;9.81;66.87;97663.63;6303453;22;20106;-83
2021/01/30 18:24:27;;;;;;;;;;;;;;;9.79;66.62;97668.19;6305664;22;19926;-78
2021/01/30 18:26:53;;;;;;;;;;;;;;;9.81;66.62;97671.56;6306969;22;19910;-81
2021/01/30 18:29:19;;;;;;;;;;;;;;;9.79;66.38;97668.19;6279665;22;19949;-82
2021/01/30 18:31:47;;;;;;;;;;;;;;;9.80;66.45;97673.38;6309423;22;19911;-85
2021/01/30 18:34:15;;;;;;;;;;;;;;;9.88;66.06;97672.81;6310432;22;20004;-82
2021/01/30 18:36:44;;;;;;;;;;;;;;;9.88;66.09;97678.13;6287295;22;19925;-85
2021/01/30 18:39:11;;;;;;;;;;;;;;;9.93;66.10;97680.44;6283711;22;19911;-88
2021/01/30 18:41:39;;;;;;;;;;;;;;;9.93;66.06;97686.56;6284804;22;19914;-83
2021/01/30 18:44:08;;;;;;;;;;;;;;;10.02;65.89;97685.03;6283297;22;19945;-81
2021/01/30 18:46:35;;;;;;;;;;;;;;;9.96;65.82;97690.78;6307431;22;19938;-81
2021/01/30 18:49:03;;;;;;;;;;;;;;;10.08;65.64;97694.31;6280447;22;20018;-82
2021/01/30 18:51:30;;;;;;;;;;;;;;;9.92;65.18;97698.06;6308021;22;20198;-78
2021/01/30 18:53:58;;;;;;;;;;;;;;;9.95;66.07;97697.84;6309247;22;19925;-83
2021/01/30 18:56:28;;;;;;;;;;;;;;;10.25;65.60;97696.56;6283926;22;19915;-80
2021/01/30 18:58:54;;;;;;;;;;;;;;;10.31;65.23;97698.75;6315465;22;19915;-80
2021/01/30 19:01:21;;;;;;;;;;;;;;;10.25;65.48;97693.91;6283289;22;19911;-84
2021/01/30 19:03:47;;;;;;;;;;;;;;;10.10;65.12;97697.69;6280938;22;19919;-79
2021/01/30 19:06:15;;;;;;;;;;;;;;;10.02;65.33;97708.00;6286496;22;19971;-81
2021/01/30 19:08:42;;;;;;;;;;;;;;;10.17;65.10;97710.34;6308702;22;19915;-85
2021/01/30 19:11:14;;;;;;;;;;;;;;;10.17;65.06;97712.16;6279536;22;19926;-83
2021/01/30 19:13:39;;;;;;;;;;;;;;;10.20;64.70;97717.22;6307147;22;19926;-82
2021/01/30 19:16:05;;;;;;;;;;;;;;;10.30;64.83;97720.03;6309885;22;19918;-81
2021/01/30 19:18:32;;;;;;;;;;;;;;;10.27;64.47;97721.09;6312708;22;19919;-82
2021/01/30 19:20:58;;;;;;;;;;;;;;;10.22;64.64;97728.53;6308679;22;19915;-83
2021/01/30 19:23:25;;;;;;;;;;;;;;;10.27;64.32;97720.25;6311816;22;19946;-81
2021/01/30 19:25:51;;;;;;;;;;;;;;;10.15;64.43;97722.84;6314951;22;19926;-82
2021/01/30 19:28:18;;;;;;;;;;;;;;;10.17;64.17;97728.03;6319396;22;19914;-82
2021/01/30 19:30:47;;;;;;;;;;;;;;;10.10;63.96;97740.03;6313909;22;19922;-88
2021/01/30 19:33:16;;;;;;;;;;;;;;;10.11;64.30;97737.25;6283187;22;20298;-83
2021/01/30 19:35:42;;;;;;;;;;;;;;;10.18;64.16;97738.50;6279740;22;19982;-81
2021/01/30 19:38:16;;;;;;;;;;;;;;;10.14;63.93;97734.38;6308019;22;20279;-80
2021/01/30 19:40:43;;;;;;;;;;;;;;;10.07;64.05;97730.53;6281667;22;20459;-82
2021/01/30 19:43:10;;;;;;;;;;;;;;;10.22;63.79;97747.06;6280896;22;19995;-83
2021/01/30 19:45:37;;;;;;;;;;;;;;;10.12;63.69;97748.72;6310542;22;19919;-80
2021/01/30 19:48:05;;;;;;;;;;;;;;;10.12;63.94;97746.91;6311955;22;19914;-83
2021/01/30 19:50:38;;;;;;;;;;;;;;;10.21;63.80;97742.75;6283956;22;19994;-85
2021/01/30 19:53:05;;;;;;;;;;;;;;;10.15;63.59;97748.50;6309999;22;19972;-80
2021/01/30 19:55:30;;;;;;;;;;;;;;;10.17;63.68;97752.69;6281563;22;19914;-84
2021/01/30 19:57:57;;;;;;;;;;;;;;;10.18;63.49;97758.84;6308167;22;19919;-84
2021/01/30 20:00:23;;;;;;;;;;;;;;;10.14;63.45;97760.03;6283739;22;19933;-82
2021/01/30 20:02:48;;;;;;;;;;;;;;;10.13;63.32;97771.56;6309972;22;19964;-82
2021/01/30 20:05:15;;;;;;;;;;;;;;;10.10;63.28;97761.19;6307164;22;20496;-82
2021/01/30 20:07:43;;;;;;;;;;;;;;;10.05;63.32;97752.75;6282420;22;19950;-82
2021/01/30 20:10:12;;;;;;;;;;;;;;;10.07;63.15;97758.75;6281782;22;19990;-81
2021/01/30 20:12:39;;;;;;;;;;;;;;;10.00;62.58;97747.78;6284021;22;19914;-85
2021/01/30 20:15:09;;;;;;;;;;;;;;;9.95;62.06;97749.94;6309642;22;19911;-82
2021/01/30 20:17:35;;;;;;;;;;;;;;;9.93;62.79;97760.63;6286828;22;19911;-84
2021/01/30 20:20:00;;;;;;;;;;;;;;;9.99;63.02;97769.94;6310243;22;19972;-82
2021/01/30 20:22:26;;;;;;;;;;;;;;;9.96;62.72;97771.00;6308217;22;19922;-83
2021/01/30 20:24:54;;;;;;;;;;;;;;;9.94;62.10;97769.41;6284284;22;19918;-83
2021/01/30 20:27:22;;;;;;;;;;;;;;;9.84;61.63;97777.16;6285434;22;19926;-84
2021/01/30 20:29:49;;;;;;;;;;;;;;;9.85;62.99;97784.16;6315227;22;19915;-85
2021/01/30 20:32:15;;;;;;;;;;;;;;;9.87;62.76;97790.16;6313506;22;19925;-87
2021/01/30 20:34:41;;;;;;;;;;;;;;;9.93;62.82;97791.53;6315976;22;19915;-85
2021/01/30 20:37:16;;;;;;;;;;;;;;;10.03;62.88;97791.72;6288233;22;20009;-83
2021/01/30 20:39:42;;;;;;;;;;;;;;;10.17;62.94;97791.56;6318856;22;19918;-84
2021/01/30 20:42:11;;;;;;;;;;;;;;;10.18;62.85;97794.09;6312933;22;19922;-81
2021/01/30 20:44:36;;;;;;;;;;;;;;;10.21;62.81;97790.38;6312854;22;19973;-79
2021/01/30 20:47:02;;;;;;;;;;;;;;;10.08;62.16;97795.69;6317312;22;20076;-82
2021/01/30 20:49:28;;;;;;;;;;;;;;;9.99;62.42;97813.09;6292372;22;19991;-83
2021/01/30 20:51:57;;;;;;;;;;;;;;;9.91;62.14;97807.50;6319484;22;19926;-83
2021/01/30 20:54:26;;;;;;;;;;;;;;;9.98;62.51;97816.69;6285113;22;19950;-81
